Time;durP1;ratioP1;P1;durP2;ratioP2;P2;SDS_P1;SDS_P2;PMS_P1;PMS_P2;Temp;Humidity;BMP_temperature;BMP_pressure;BME280_temperature;BME280_humidity;BME280_pressure;Samples;Min_cycle;Max_cycle;Signal;HPM_P1;HPM_P2
2021/06/08 00:00:20;;;;;;;7.22;6.63;;;;;;;13.69;79.46;102207.09;1032307;28;20065;-81
2021/06/08 00:00:51;;;;;;;7.38;6.63;;;;;;;13.73;79.33;102207.19;1028465;28;20059;-80
2021/06/08 00:01:24;;;;;;;7.80;7.03;;;;;;;13.75;79.24;102212.44;1028442;28;20530;-80
2021/06/08 00:01:56;;;;;;;8.02;7.32;;;;;;;13.71;79.15;102205.38;1029438;28;20046;-80
2021/06/08 00:02:28;;;;;;;11.93;7.50;;;;;;;13.73;79.44;102201.13;1032457;28;20069;-80
2021/06/08 00:03:01;;;;;;;7.03;6.43;;;;;;;13.74;79.09;102203.75;1032422;28;20050;-80
2021/06/08 00:03:32;;;;;;;7.57;6.80;;;;;;;13.74;78.88;102205.47;1032531;28;20471;-81
2021/06/08 00:04:04;;;;;;;8.23;6.90;;;;;;;13.73;78.75;102207.19;1032557;28;20502;-80
2021/06/08 00:04:36;;;;;;;8.40;7.32;;;;;;;13.72;78.86;102208.00;1031665;28;20073;-80
2021/06/08 00:05:08;;;;;;;12.48;7.05;;;;;;;13.68;79.16;102203.59;1028482;28;20046;-80
2021/06/08 00:05:40;;;;;;;9.15;6.90;;;;;;;13.67;78.65;102203.56;1024321;29;20650;-81
2021/06/08 00:06:11;;;;;;;9.07;7.05;;;;;;;13.66;79.04;102210.47;1025038;28;20058;-81
2021/06/08 00:06:43;;;;;;;7.88;7.07;;;;;;;13.66;79.04;102201.78;1024364;29;20047;-81
2021/06/08 00:07:14;;;;;;;7.47;6.65;;;;;;;13.64;79.57;102206.09;1024903;28;20058;-81
2021/06/08 00:07:47;;;;;;;7.93;6.57;;;;;;;13.63;79.70;102206.94;1028415;28;20050;-80
2021/06/08 00:08:19;;;;;;;6.57;5.97;;;;;;;13.62;79.05;102203.47;1028341;28;20515;-80
2021/06/08 00:08:51;;;;;;;7.82;7.07;;;;;;;13.64;79.12;102204.38;1028928;28;20408;-80
2021/06/08 00:09:23;;;;;;;8.48;7.30;;;;;;;13.62;79.00;102206.06;1033267;28;20117;-81
2021/06/08 00:09:54;;;;;;;7.85;7.03;;;;;;;13.59;79.20;102203.38;1032295;28;20058;-80
2021/06/08 00:10:26;;;;;;;7.57;6.82;;;;;;;13.58;79.69;102208.56;1028465;28;20569;-81
2021/06/08 00:10:58;;;;;;;7.80;6.90;;;;;;;13.62;79.17;102198.25;1024351;29;20051;-81
2021/06/08 00:11:30;;;;;;;8.73;6.85;;;;;;;13.60;78.83;102207.72;1024873;28;20055;-80
2021/06/08 00:12:01;;;;;;;9.48;7.55;;;;;;;13.57;78.79;102207.66;1029000;28;20141;-81
2021/06/08 00:12:36;;;;;;;9.25;7.72;;;;;;;13.52;78.70;102202.34;1032314;28;20094;-81
2021/06/08 00:13:08;;;;;;;7.97;7.18;;;;;;;13.49;79.26;102203.97;1028312;28;20110;-81
2021/06/08 00:13:39;;;;;;;8.52;7.68;;;;;;;13.42;79.65;102204.69;1029170;28;20047;-80
2021/06/08 00:14:11;;;;;;;8.93;6.75;;;;;;;13.44;79.31;102201.28;1028272;28;20066;-80
2021/06/08 00:14:42;;;;;;;8.65;7.32;;;;;;;13.44;79.08;102198.69;1028352;28;20054;-80
2021/06/08 00:15:15;;;;;;;7.65;6.65;;;;;;;13.50;79.21;102200.53;1032447;28;20066;-80
2021/06/08 00:15:46;;;;;;;7.72;6.80;;;;;;;13.46;78.72;102193.53;1028921;28;20054;-80
2021/06/08 00:16:18;;;;;;;9.88;8.18;;;;;;;13.45;79.10;102205.66;1032418;28;20058;-80
2021/06/08 00:16:50;;;;;;;7.97;7.18;;;;;;;13.56;78.26;102205.00;1032282;28;20133;-80
2021/06/08 00:17:21;;;;;;;7.30;6.65;;;;;;;13.47;79.25;102193.56;1032818;28;20050;-80
2021/06/08 00:17:53;;;;;;;10.35;7.10;;;;;;;13.45;79.23;102203.06;1036739;28;20108;-81
2021/06/08 00:18:25;;;;;;;8.10;7.30;;;;;;;13.39;79.52;102199.41;1036731;28;20050;-81
2021/06/08 00:18:56;;;;;;;8.27;7.47;;;;;;;13.38;79.70;102202.84;1032343;28;20051;-80
2021/06/08 00:19:28;;;;;;;7.47;6.65;;;;;;;13.43;79.38;102199.50;1032240;28;20128;-81
2021/06/08 00:20:00;;;;;;;7.40;6.70;;;;;;;13.35;79.53;102197.56;1028410;28;20050;-81
2021/06/08 00:20:31;;;;;;;9.32;6.70;;;;;;;13.36;79.65;102197.59;1024725;28;20055;-81
2021/06/08 00:21:03;;;;;;;9.52;6.63;;;;;;;13.34;79.77;102201.03;1028150;28;20058;-81
2021/06/08 00:21:36;;;;;;;7.85;7.05;;;;;;;13.30;79.91;102199.19;1024857;28;20047;-81
2021/06/08 00:22:07;;;;;;;8.43;6.60;;;;;;;13.35;79.93;102197.56;1029094;28;20055;-81
2021/06/08 00:22:39;;;;;;;9.13;7.65;;;;;;;13.35;79.84;102200.19;1032397;28;20057;-81
2021/06/08 00:23:10;;;;;;;7.20;6.35;;;;;;;13.26;80.12;102193.88;1031731;28;20050;-80
2021/06/08 00:23:42;;;;;;;7.88;7.13;;;;;;;13.30;79.83;102194.84;1028443;28;20126;-81
2021/06/08 00:24:14;;;;;;;10.20;6.68;;;;;;;13.25;80.36;102197.31;1028716;28;20137;-81
2021/06/08 00:24:45;;;;;;;7.25;6.60;;;;;;;13.23;80.11;102192.94;1032286;28;20054;-80
2021/06/08 00:25:17;;;;;;;8.23;6.80;;;;;;;13.28;79.54;102199.16;1031896;28;20046;-80
2021/06/08 00:25:48;;;;;;;8.35;6.78;;;;;;;13.30;79.05;102197.44;1032213;28;20482;-80
2021/06/08 00:26:20;;;;;;;7.40;6.70;;;;;;;13.30;79.12;102200.06;1032323;28;20053;-81
2021/06/08 00:26:51;;;;;;;7.63;6.07;;;;;;;13.28;79.78;102198.28;1032281;28;20054;-80
2021/06/08 00:27:23;;;;;;;7.80;6.57;;;;;;;13.31;79.39;102196.59;1028255;28;20054;-80
2021/06/08 00:27:56;;;;;;;8.57;6.63;;;;;;;13.26;79.87;102193.88;1024303;28;20070;-80
2021/06/08 00:28:28;;;;;;;6.75;6.00;;;;;;;13.20;79.69;102200.63;1024972;28;20050;-81
2021/06/08 00:29:00;;;;;;;9.32;6.20;;;;;;;13.25;79.87;102199.06;1022822;29;20051;-80
2021/06/08 00:29:31;;;;;;;8.68;7.13;;;;;;;13.23;80.24;102193.81;1026068;28;20062;-80
2021/06/08 00:30:04;;;;;;;8.50;6.68;;;;;;;13.24;80.04;102199.91;1028838;28;20047;-80
2021/06/08 00:30:36;;;;;;;7.18;6.55;;;;;;;13.22;79.85;102199.00;1030276;28;20114;-80
2021/06/08 00:31:08;;;;;;;6.75;6.15;;;;;;;13.19;80.15;102198.88;1028353;28;20073;-81
2021/06/08 00:31:42;;;;;;;7.25;6.65;;;;;;;13.16;80.04;102197.06;1028332;28;20403;-80
2021/06/08 00:32:14;;;;;;;7.88;7.05;;;;;;;13.15;80.42;102202.22;1027103;28;20059;-80
2021/06/08 00:32:45;;;;;;;9.63;7.25;;;;;;;13.16;80.21;102199.69;1028267;28;20054;-80
2021/06/08 00:33:17;;;;;;;8.13;6.65;;;;;;;13.19;80.19;102204.94;1024415;29;20078;-80
2021/06/08 00:33:50;;;;;;;6.38;5.75;;;;;;;13.17;80.25;102195.34;1024674;28;20047;-81
2021/06/08 00:34:22;;;;;;;8.23;6.97;;;;;;;13.22;79.75;102209.38;1029003;28;20427;-80
2021/06/08 00:34:54;;;;;;;7.47;6.63;;;;;;;13.20;79.90;102203.22;1029283;28;20073;-81
2021/06/08 00:35:27;;;;;;;8.43;7.45;;;;;;;13.20;79.12;102206.69;1032173;28;20042;-81
2021/06/08 00:35:59;;;;;;;7.93;6.65;;;;;;;13.23;79.40;102208.53;1028180;28;20050;-81
2021/06/08 00:36:36;;;;;;;7.00;6.20;;;;;;;13.12;79.72;102199.56;1029097;28;20043;-81
2021/06/08 00:37:08;;;;;;;6.53;5.80;;;;;;;13.21;79.94;102202.41;1028276;28;20046;-80
2021/06/08 00:37:39;;;;;;;7.63;6.50;;;;;;;13.23;79.60;102200.75;1025703;28;20047;-80
2021/06/08 00:38:11;;;;;;;8.68;7.28;;;;;;;13.17;79.85;102203.16;1028192;28;20054;-81
2021/06/08 00:38:42;;;;;;;7.60;6.93;;;;;;;13.16;80.25;102204.88;1022878;29;20149;-80
2021/06/08 00:39:14;;;;;;;7.20;6.47;;;;;;;13.20;78.98;102203.22;1016930;29;20112;-81
2021/06/08 00:39:45;;;;;;;7.30;6.35;;;;;;;13.14;80.04;102203.06;1020346;29;20047;-81
2021/06/08 00:40:17;;;;;;;7.22;6.53;;;;;;;13.17;79.59;102203.16;1021756;29;20062;-80
2021/06/08 00:40:48;;;;;;;7.18;6.47;;;;;;;13.15;79.92;102197.00;1019665;29;20069;-80
2021/06/08 00:41:37;;;;;;;7.43;6.72;;;;;;;13.08;79.60;102197.69;1020641;29;20048;-81
2021/06/08 00:42:08;;;;;;;7.95;7.18;;;;;;;13.11;79.71;102203.88;1026657;28;20051;-81
2021/06/08 00:42:40;;;;;;;8.90;8.00;;;;;;;12.97;80.47;102197.41;1028538;28;20042;-81
2021/06/08 00:43:12;;;;;;;8.23;6.30;;;;;;;12.99;80.29;102203.56;1028234;28;20054;-80
2021/06/08 00:43:44;;;;;;;7.75;6.97;;;;;;;13.02;80.31;102200.13;1028321;28;20046;-80
2021/06/08 00:44:17;;;;;;;7.88;7.10;;;;;;;12.99;80.50;102200.94;1028157;28;20058;-80
2021/06/08 00:44:48;;;;;;;7.75;7.00;;;;;;;12.93;80.29;102199.06;1029991;28;20046;-81
2021/06/08 00:45:20;;;;;;;7.88;6.82;;;;;;;12.96;80.40;102206.94;1032262;28;20048;-81
2021/06/08 00:45:55;;;;;;;8.80;6.85;;;;;;;12.87;80.90;102203.19;1032144;28;20053;-81
2021/06/08 00:46:26;;;;;;;6.78;6.22;;;;;;;12.86;81.07;102201.44;1032269;28;20053;-81
2021/06/08 00:46:58;;;;;;;7.63;6.88;;;;;;;12.85;80.92;102205.75;1029282;28;20055;-80
2021/06/08 00:47:30;;;;;;;7.70;6.75;;;;;;;12.89;80.69;102196.34;1027210;28;20058;-81
2021/06/08 00:48:03;;;;;;;7.97;7.25;;;;;;;12.86;80.85;102207.50;1020801;29;20063;-81
2021/06/08 00:48:34;;;;;;;8.90;6.43;;;;;;;12.86;81.13;102202.31;1024241;29;20055;-80
2021/06/08 00:49:06;;;;;;;7.50;6.57;;;;;;;12.85;80.76;102200.56;1024331;29;20125;-80
2021/06/08 00:49:37;;;;;;;7.40;6.70;;;;;;;12.77;81.03;102196.00;1022929;28;20093;-81
2021/06/08 00:50:10;;;;;;;7.20;6.50;;;;;;;12.78;81.21;102205.56;1024077;29;20059;-81
2021/06/08 00:50:41;;;;;;;6.53;5.75;;;;;;;12.73;81.68;102208.00;1024718;28;20055;-81
2021/06/08 00:51:13;;;;;;;8.07;6.72;;;;;;;12.72;81.36;102203.66;1028727;28;20054;-81
2021/06/08 00:51:44;;;;;;;8.05;7.25;;;;;;;12.71;81.03;102194.13;1026502;28;20058;-81
2021/06/08 00:52:16;;;;;;;8.20;7.15;;;;;;;12.74;80.93;102199.38;1028210;28;20185;-81
2021/06/08 00:52:51;;;;;;;7.72;6.95;;;;;;;12.73;81.08;102203.69;1028251;28;20047;-81
2021/06/08 00:53:23;;;;;;;10.80;6.65;;;;;;;12.77;80.94;102199.50;1028122;28;20057;-81
2021/06/08 00:53:55;;;;;;;7.03;6.35;;;;;;;12.73;80.79;102200.22;1024184;29;20047;-81
2021/06/08 00:54:26;;;;;;;7.38;6.68;;;;;;;12.77;80.29;102199.50;1024372;29;20130;-81
2021/06/08 00:54:58;;;;;;;8.30;7.18;;;;;;;12.77;80.39;102204.69;1027171;28;20058;-80
2021/06/08 00:55:30;;;;;;;8.00;7.22;;;;;;;12.77;79.97;102201.22;1032297;28;20046;-81
2021/06/08 00:56:01;;;;;;;6.38;5.40;;;;;;;12.73;80.61;102195.03;1032254;28;20466;-81
2021/06/08 00:56:34;;;;;;;7.75;7.00;;;;;;;12.65;80.65;102204.31;1028327;28;20143;-81
2021/06/08 00:57:09;;;;;;;8.43;7.53;;;;;;;12.62;80.60;102199.03;1028240;28;20055;-81
2021/06/08 00:57:40;;;;;;;7.57;6.82;;;;;;;12.50;81.46;102194.38;1025318;28;20412;-81
2021/06/08 00:58:12;;;;;;;8.30;7.43;;;;;;;12.47;81.26;102192.56;1023131;29;20054;-83
2021/06/08 00:58:47;;;;;;;10.55;7.70;;;;;;;12.47;81.61;102199.47;1024147;29;20558;-81
2021/06/08 00:59:19;;;;;;;7.55;6.95;;;;;;;12.41;81.75;102196.72;1021155;29;20051;-81
2021/06/08 00:59:50;;;;;;;8.88;7.65;;;;;;;12.40;81.92;102197.53;1021112;29;20139;-81
2021/06/08 01:00:24;;;;;;;7.68;6.97;;;;;;;12.41;81.85;102202.78;1024246;29;20047;-81
2021/06/08 01:00:58;;;;;;;8.38;7.50;;;;;;;12.47;81.68;102194.28;1025299;28;20051;-81
2021/06/08 01:01:32;;;;;;;7.88;7.07;;;;;;;12.43;81.71;102200.25;1028265;28;20054;-81
2021/06/08 01:02:03;;;;;;;8.00;6.97;;;;;;;12.40;81.94;102195.81;1024213;29;20054;-81
2021/06/08 01:02:36;;;;;;;8.52;7.63;;;;;;;12.37;82.21;102200.94;1024046;29;20055;-81
2021/06/08 01:03:07;;;;;;;9.75;8.13;;;;;;;12.43;81.80;102203.72;1025023;28;20555;-81
2021/06/08 01:03:39;;;;;;;10.07;7.88;;;;;;;12.50;81.38;102202.19;1028283;28;20047;-81
2021/06/08 01:04:13;;;;;;;8.25;7.43;;;;;;;12.58;81.39;102199.78;1028449;28;20066;-81
2021/06/08 01:04:45;;;;;;;8.55;7.65;;;;;;;12.60;80.46;102199.00;1028347;28;20422;-79
2021/06/08 01:05:17;;;;;;;8.98;7.53;;;;;;;12.52;81.49;102199.63;1031781;28;20051;-81
2021/06/08 01:05:48;;;;;;;8.05;7.25;;;;;;;12.50;81.42;102199.56;1032224;28;20498;-81
2021/06/08 01:06:20;;;;;;;8.95;7.57;;;;;;;12.52;80.88;102197.03;1029924;28;20058;-81
2021/06/08 01:06:52;;;;;;;8.75;7.32;;;;;;;12.52;80.58;102194.41;1028303;28;20055;-81
2021/06/08 01:07:23;;;;;;;7.90;7.10;;;;;;;12.40;81.33;102195.81;1028215;28;20495;-81
2021/06/08 01:07:55;;;;;;;7.72;6.93;;;;;;;12.34;82.25;102195.66;1030098;28;20062;-80
2021/06/08 01:08:26;;;;;;;8.70;7.45;;;;;;;12.38;81.38;102202.69;1032372;28;20121;-80
2021/06/08 01:08:58;;;;;;;8.50;7.70;;;;;;;12.41;80.91;102199.31;1032241;28;20050;-81
2021/06/08 01:09:29;;;;;;;10.10;7.03;;;;;;;12.45;80.78;102194.25;1031965;28;20054;-81
2021/06/08 01:10:08;;;;;;;8.25;7.07;;;;;;;12.49;80.73;102202.13;1032080;28;20054;-81
2021/06/08 01:10:39;;;;;;;7.68;6.93;;;;;;;12.53;80.78;102198.78;1032117;28;20061;-81
2021/06/08 01:11:11;;;;;;;7.90;7.10;;;;;;;12.49;80.60;102202.13;1029425;28;20487;-80
2021/06/08 01:11:43;;;;;;;7.97;7.18;;;;;;;12.48;81.22;102209.06;1032352;28;20161;-81
2021/06/08 01:12:14;;;;;;;7.03;6.38;;;;;;;12.51;80.54;102197.88;1028061;28;20534;-81
2021/06/08 01:12:47;;;;;;;8.00;6.88;;;;;;;12.47;80.49;102200.34;1028104;28;20083;-81
2021/06/08 01:13:18;;;;;;;8.93;6.85;;;;;;;12.46;80.77;102192.53;1028822;28;20411;-81
2021/06/08 01:13:50;;;;;;;7.97;7.28;;;;;;;12.37;81.14;102198.34;1024055;28;20082;-81
2021/06/08 01:14:21;;;;;;;10.18;6.43;;;;;;;12.38;81.12;102197.50;1024626;28;20166;-81
2021/06/08 01:14:53;;;;;;;8.30;7.45;;;;;;;12.34;81.20;102200.84;1024184;29;20062;-81
2021/06/08 01:15:25;;;;;;;6.95;6.20;;;;;;;12.29;81.66;102206.72;1019094;29;20158;-81
2021/06/08 01:15:56;;;;;;;8.15;7.00;;;;;;;12.26;81.46;102206.66;1024030;29;20142;-81
2021/06/08 01:16:30;;;;;;;8.30;7.32;;;;;;;12.18;82.15;102203.81;1024772;28;20112;-81
2021/06/08 01:17:02;;;;;;;8.23;7.45;;;;;;;12.22;81.85;102203.06;1028116;28;20058;-81
2021/06/08 01:17:33;;;;;;;14.38;7.65;;;;;;;12.22;81.75;102197.88;1024146;29;20051;-80
2021/06/08 01:18:05;;;;;;;7.63;6.93;;;;;;;12.22;82.03;102200.47;1024651;28;20058;-81
2021/06/08 01:18:36;;;;;;;10.15;7.28;;;;;;;12.19;81.87;102201.25;1028286;28;20522;-81
2021/06/08 01:19:08;;;;;;;11.48;8.43;;;;;;;12.19;81.93;102205.56;1029423;28;20508;-81
2021/06/08 01:19:40;;;;;;;7.90;7.10;;;;;;;12.19;82.18;102200.38;1029315;28;20058;-82
2021/06/08 01:20:12;;;;;;;9.00;7.82;;;;;;;12.16;82.19;102203.78;1028179;28;20114;-81
2021/06/08 01:20:44;;;;;;;8.00;7.20;;;;;;;12.16;82.04;102214.16;1028028;28;20057;-81
2021/06/08 01:21:16;;;;;;;8.43;7.63;;;;;;;12.18;81.65;102207.28;1027967;28;20411;-81
2021/06/08 01:21:48;;;;;;;8.98;7.78;;;;;;;12.18;81.99;102204.69;1024242;29;20055;-80
2021/06/08 01:22:19;;;;;;;9.32;7.35;;;;;;;12.16;81.98;102202.91;1021578;28;20070;-81
2021/06/08 01:22:51;;;;;;;10.73;7.70;;;;;;;12.19;81.74;102200.38;1028191;28;20043;-81
2021/06/08 01:23:23;;;;;;;8.65;7.60;;;;;;;12.16;81.96;102205.50;1027380;28;20518;-81
2021/06/08 01:23:56;;;;;;;8.45;6.57;;;;;;;12.21;81.47;102203.91;1028776;28;20051;-81
2021/06/08 01:24:27;;;;;;;7.88;7.07;;;;;;;12.14;81.94;102197.66;1032084;28;20050;-81
2021/06/08 01:24:59;;;;;;;8.00;7.22;;;;;;;12.22;81.12;102200.47;1032201;28;20406;-81
2021/06/08 01:25:31;;;;;;;10.32;8.18;;;;;;;12.24;81.77;102204.00;1031697;28;20049;-81
2021/06/08 01:26:04;;;;;;;9.98;7.13;;;;;;;12.22;81.01;102204.78;1028153;28;20364;-81
2021/06/08 01:26:37;;;;;;;8.45;7.65;;;;;;;12.23;81.36;102204.84;1028049;28;20051;-81
2021/06/08 01:27:09;;;;;;;10.40;7.43;;;;;;;12.22;81.59;102205.66;1028924;28;20068;-81
2021/06/08 01:27:41;;;;;;;9.13;8.27;;;;;;;12.19;81.67;102208.16;1032191;28;20148;-81
2021/06/08 01:28:14;;;;;;;8.75;7.68;;;;;;;12.18;81.47;102212.47;1031963;28;20391;-81
2021/06/08 01:28:48;;;;;;;7.65;6.95;;;;;;;12.16;81.63;102210.69;1031970;28;20046;-81
2021/06/08 01:29:19;;;;;;;11.23;7.18;;;;;;;12.14;81.35;102208.03;1032354;28;20494;-81
2021/06/08 01:29:53;;;;;;;9.18;8.23;;;;;;;12.11;81.92;102207.94;1032219;28;20392;-81
2021/06/08 01:30:26;;;;;;;8.18;7.38;;;;;;;12.11;81.40;102201.88;1031192;28;20482;-81
2021/06/08 01:31:02;;;;;;;7.95;7.25;;;;;;;12.14;81.59;102205.44;1028362;28;20050;-81
2021/06/08 01:31:35;;;;;;;8.73;7.82;;;;;;;12.15;81.58;102215.00;1028511;28;20050;-81
2021/06/08 01:32:08;;;;;;;8.13;7.32;;;;;;;12.13;81.62;102213.16;1028482;28;20050;-81
2021/06/08 01:32:42;;;;;;;7.70;6.97;;;;;;;12.04;81.67;102207.72;1027958;28;20058;-81
2021/06/08 01:33:16;;;;;;;8.23;7.45;;;;;;;12.05;81.98;102212.06;1028002;28;20050;-82
2021/06/08 01:33:48;;;;;;;8.27;7.43;;;;;;;12.07;82.09;102211.25;1028034;28;20050;-81
2021/06/08 01:34:20;;;;;;;9.93;7.88;;;;;;;12.09;82.05;102211.34;1027967;28;20042;-81
2021/06/08 01:34:54;;;;;;;9.88;8.55;;;;;;;12.06;82.44;102201.72;1028092;28;20068;-80
2021/06/08 01:35:28;;;;;;;8.43;7.63;;;;;;;12.02;82.43;102204.16;1030548;28;20539;-81
2021/06/08 01:36:00;;;;;;;8.65;7.75;;;;;;;12.09;81.98;102206.16;1030390;28;20078;-81
2021/06/08 01:36:38;;;;;;;8.77;7.88;;;;;;;12.01;82.53;102205.88;1028032;28;20080;-81
2021/06/08 01:37:09;;;;;;;8.50;7.80;;;;;;;11.98;82.46;102208.41;1027884;28;20054;-81
2021/06/08 01:37:44;;;;;;;9.10;7.45;;;;;;;11.99;82.46;102204.97;1024082;29;20058;-81
2021/06/08 01:38:16;;;;;;;9.27;8.32;;;;;;;11.95;82.37;102203.09;1024048;29;20393;-81
2021/06/08 01:38:52;;;;;;;11.23;7.60;;;;;;;11.96;82.62;102210.06;1025172;28;20051;-81
2021/06/08 01:39:24;;;;;;;8.38;7.43;;;;;;;12.03;81.86;102200.78;1026148;28;20082;-81
2021/06/08 01:39:55;;;;;;;7.53;6.80;;;;;;;12.01;82.13;102200.69;1032189;28;20046;-81
2021/06/08 01:40:27;;;;;;;9.68;7.53;;;;;;;12.06;81.65;102211.22;1024412;28;20074;-81
2021/06/08 01:40:59;;;;;;;8.50;7.70;;;;;;;12.05;81.69;102205.16;1026207;28;20062;-81
2021/06/08 01:41:31;;;;;;;8.02;7.20;;;;;;;12.08;81.47;102204.34;1028513;28;20062;-81
2021/06/08 01:42:04;;;;;;;12.80;7.50;;;;;;;12.00;81.67;102196.34;1024910;28;20066;-81
2021/06/08 01:42:36;;;;;;;8.90;8.00;;;;;;;12.00;81.81;102209.31;1024027;29;20047;-81
2021/06/08 01:43:08;;;;;;;7.95;7.25;;;;;;;11.94;82.54;102199.63;1024083;29;20119;-81
2021/06/08 01:43:41;;;;;;;8.48;7.35;;;;;;;11.94;82.15;102202.22;1027634;28;20081;-81
2021/06/08 01:44:13;;;;;;;8.48;7.57;;;;;;;11.92;82.46;102206.50;1032112;28;20089;-81
2021/06/08 01:44:46;;;;;;;8.00;7.30;;;;;;;11.88;82.65;102202.03;1028941;28;20203;-81
2021/06/08 01:45:18;;;;;;;7.88;7.18;;;;;;;11.81;82.94;102197.50;1031894;28;20447;-81
2021/06/08 01:45:50;;;;;;;8.77;7.88;;;;;;;11.74;82.74;102203.31;1028124;28;20503;-80
2021/06/08 01:46:22;;;;;;;8.68;7.15;;;;;;;11.79;82.37;102193.94;1026839;28;20563;-81
2021/06/08 01:46:54;;;;;;;8.93;7.90;;;;;;;11.75;82.70;102192.09;1027094;28;20054;-81
2021/06/08 01:47:26;;;;;;;8.20;7.40;;;;;;;11.76;82.29;102193.84;1024659;28;20142;-81
2021/06/08 01:47:57;;;;;;;8.85;7.88;;;;;;;11.77;81.89;102194.72;1028008;28;20051;-81
2021/06/08 01:48:29;;;;;;;8.60;7.80;;;;;;;11.76;82.63;102196.44;1028451;28;20058;-81
2021/06/08 01:49:00;;;;;;;8.38;7.57;;;;;;;11.66;83.32;102202.16;1028322;28;20062;-81
2021/06/08 01:49:32;;;;;;;7.55;6.80;;;;;;;11.67;83.10;102196.13;1032052;28;20042;-82
2021/06/08 01:50:04;;;;;;;8.52;7.72;;;;;;;11.63;83.63;102202.06;1032039;28;20050;-81
2021/06/08 01:50:36;;;;;;;10.13;8.07;;;;;;;11.63;83.36;102197.78;1027957;28;20054;-81
2021/06/08 01:51:40;;;;;;;11.90;7.30;;;;;;;11.68;82.87;102192.69;1023938;29;20071;-81
2021/06/08 01:52:37;;;;;;;8.57;7.72;;;;;;;11.65;83.32;102193.50;1012707;29;20063;-81
2021/06/08 01:53:27;;;;;;;9.18;8.25;;;;;;;11.64;83.17;102196.94;1010932;29;20057;-81
2021/06/08 01:54:11;;;;;;;7.30;6.68;;;;;;;11.68;83.11;102195.28;1020260;28;20048;-81
2021/06/08 01:55:10;;;;;;;9.80;7.72;;;;;;;11.66;83.02;102202.16;1027796;28;20109;-81
2021/06/08 01:55:45;;;;;;;8.63;7.45;;;;;;;11.69;83.02;102197.09;1027678;28;20416;-81
2021/06/08 01:56:24;;;;;;;8.55;7.75;;;;;;;11.69;82.62;102189.31;1031757;28;20076;-81
2021/06/08 01:57:05;;;;;;;8.55;7.65;;;;;;;11.65;82.65;102195.22;1028069;28;20423;-81
2021/06/08 01:57:43;;;;;;;10.25;7.93;;;;;;;11.63;83.27;102195.19;1028002;28;20047;-80
2021/06/08 01:58:38;;;;;;;9.45;8.10;;;;;;;11.57;83.36;102194.97;1028072;28;20054;-81
2021/06/08 01:59:26;;;;;;;7.20;6.55;;;;;;;11.56;83.41;102200.09;1024052;29;20062;-81
2021/06/08 02:00:19;;;;;;;9.10;7.93;;;;;;;11.49;83.76;102201.59;1029248;28;20054;-81
2021/06/08 02:00:56;;;;;;;7.72;7.03;;;;;;;11.61;83.36;102206.31;1029238;28;20138;-80
2021/06/08 02:01:42;;;;;;;8.85;7.95;;;;;;;11.62;83.57;102198.56;1028057;28;20046;-81
2021/06/08 02:02:29;;;;;;;8.98;7.88;;;;;;;11.56;83.96;102200.09;1027936;28;20054;-81
2021/06/08 02:03:04;;;;;;;8.43;7.50;;;;;;;11.61;83.65;102206.31;1022064;29;20098;-81
2021/06/08 02:04:01;;;;;;;8.55;7.75;;;;;;;11.55;83.82;102208.69;1024091;29;20047;-81
2021/06/08 02:04:41;;;;;;;9.45;8.55;;;;;;;11.46;84.29;102203.19;1024618;28;20434;-81
2021/06/08 02:05:36;;;;;;;9.65;8.70;;;;;;;11.43;84.53;102214.34;1031818;28;20054;-81
2021/06/08 02:06:26;;;;;;;9.18;8.07;;;;;;;11.41;83.87;102205.66;1031699;28;20054;-81
2021/06/08 02:07:11;;;;;;;9.63;8.57;;;;;;;11.45;84.48;102204.03;1031971;28;20057;-81
2021/06/08 02:08:14;;;;;;;11.70;8.93;;;;;;;11.41;84.65;102208.25;1031225;28;20172;-81
2021/06/08 02:09:13;;;;;;;9.25;8.05;;;;;;;11.41;84.23;102210.84;1030092;28;20407;-81
2021/06/08 02:10:26;;;;;;;9.23;8.32;;;;;;;11.36;84.10;102202.03;1023799;28;20499;-81
2021/06/08 02:11:07;;;;;;;9.30;8.20;;;;;;;11.31;84.39;102206.19;1028432;28;20058;-81
2021/06/08 02:11:45;;;;;;;9.07;7.53;;;;;;;11.30;84.23;102201.84;1030861;28;20054;-81
2021/06/08 02:12:20;;;;;;;9.88;8.45;;;;;;;11.29;84.43;102202.66;1031835;28;20446;-81
2021/06/08 02:13:10;;;;;;;9.00;8.10;;;;;;;11.26;84.15;102202.56;1027917;28;20059;-80
2021/06/08 02:13:41;;;;;;;11.02;7.95;;;;;;;11.28;84.29;102203.47;1028066;28;20051;-80
2021/06/08 02:14:40;;;;;;;9.15;8.25;;;;;;;11.27;84.17;102199.13;1027861;28;20610;-81
2021/06/08 02:15:12;;;;;;;9.93;7.88;;;;;;;11.18;84.62;102199.72;1028079;28;20062;-81
2021/06/08 02:15:59;;;;;;;9.40;8.38;;;;;;;11.21;84.57;102199.78;1031954;28;20042;-81
2021/06/08 02:16:59;;;;;;;8.55;7.75;;;;;;;11.21;84.57;102204.97;1029089;28;20072;-80
2021/06/08 02:17:49;;;;;;;8.63;7.50;;;;;;;11.22;84.46;102201.56;1012799;29;20429;-81
2021/06/08 02:18:25;;;;;;;9.82;8.75;;;;;;;11.15;84.48;102200.47;1023552;28;20058;-81
2021/06/08 02:18:57;;;;;;;8.70;7.90;;;;;;;11.15;84.50;102194.41;1027707;28;20426;-81
2021/06/08 02:19:30;;;;;;;11.10;8.68;;;;;;;11.20;84.60;102204.94;1027608;28;20145;-81
2021/06/08 02:20:10;;;;;;;9.00;8.05;;;;;;;11.16;84.41;102193.56;1027773;28;20047;-81
2021/06/08 02:20:42;;;;;;;8.75;7.90;;;;;;;11.09;84.46;102199.38;1028490;28;20061;-80
2021/06/08 02:21:20;;;;;;;9.23;8.35;;;;;;;11.12;84.62;102204.69;1032264;28;20058;-80
2021/06/08 02:21:56;;;;;;;12.07;9.13;;;;;;;11.08;84.62;102207.97;1032321;28;20054;-81
2021/06/08 02:22:30;;;;;;;10.38;9.07;;;;;;;11.01;85.19;102212.06;1032009;28;20133;-81
2021/06/08 02:23:06;;;;;;;10.10;9.10;;;;;;;11.01;85.14;102204.31;1032256;28;20130;-81
2021/06/08 02:23:38;;;;;;;9.82;8.55;;;;;;;11.09;84.76;102212.34;1032292;28;20076;-81
2021/06/08 02:24:16;;;;;;;9.88;8.90;;;;;;;11.14;84.34;102213.38;1029611;28;20054;-81
2021/06/08 02:24:49;;;;;;;9.73;8.73;;;;;;;11.12;84.52;102210.75;1028014;28;20344;-80
2021/06/08 02:25:24;;;;;;;9.30;8.30;;;;;;;11.15;84.13;102209.94;1023758;29;20086;-80
2021/06/08 02:25:57;;;;;;;9.60;8.60;;;;;;;11.10;84.54;102209.78;1025643;28;20055;-81
2021/06/08 02:26:31;;;;;;;9.68;8.32;;;;;;;11.10;84.48;102201.13;1030129;28;20651;-81
2021/06/08 02:27:07;;;;;;;9.55;8.65;;;;;;;11.06;84.85;102207.03;1027813;28;20057;-80
2021/06/08 02:27:39;;;;;;;9.73;8.65;;;;;;;11.10;84.42;102211.50;1025386;28;20142;-80
2021/06/08 02:28:14;;;;;;;11.35;8.73;;;;;;;11.05;84.41;102207.88;1027882;28;20055;-81
2021/06/08 02:28:49;;;;;;;9.68;8.25;;;;;;;11.02;84.68;102210.38;1027962;28;20133;-81
2021/06/08 02:29:22;;;;;;;9.95;8.85;;;;;;;11.04;84.68;102209.56;1027851;28;20051;-81
2021/06/08 02:29:55;;;;;;;9.93;9.02;;;;;;;11.01;84.49;102211.19;1025534;28;20546;-81
2021/06/08 02:30:28;;;;;;;9.25;8.38;;;;;;;10.97;84.45;102206.72;1027843;28;20047;-80
2021/06/08 02:31:02;;;;;;;13.23;7.47;;;;;;;10.90;84.76;102215.13;1027953;28;20059;-81
2021/06/08 02:31:35;;;;;;;8.02;7.22;;;;;;;10.88;84.84;102212.44;1024930;28;20091;-81
2021/06/08 02:32:08;;;;;;;9.82;8.82;;;;;;;10.92;84.46;102208.28;1023940;29;20055;-81
2021/06/08 02:32:41;;;;;;;10.60;9.23;;;;;;;10.78;85.15;102208.66;1025145;28;20058;-81
2021/06/08 02:33:16;;;;;;;9.52;8.63;;;;;;;10.77;85.02;102208.59;1027823;28;20058;-80
2021/06/08 02:33:49;;;;;;;10.73;9.30;;;;;;;10.76;85.27;102212.88;1025174;28;20051;-81
2021/06/08 02:34:21;;;;;;;9.82;8.82;;;;;;;10.84;84.90;102213.19;1025174;28;20055;-81
2021/06/08 02:34:53;;;;;;;9.65;8.75;;;;;;;10.79;85.17;102217.31;1027991;28;20047;-81
2021/06/08 02:35:26;;;;;;;9.95;8.95;;;;;;;10.77;85.14;102216.34;1028608;28;20526;-81
2021/06/08 02:35:59;;;;;;;10.45;9.10;;;;;;;10.77;85.11;102212.06;1031874;28;20046;-81
2021/06/08 02:36:31;;;;;;;8.73;7.88;;;;;;;10.76;85.35;102218.06;1031935;28;20058;-81
2021/06/08 02:37:03;;;;;;;9.93;9.02;;;;;;;10.79;85.14;102219.91;1030456;28;20046;-81
2021/06/08 02:37:36;;;;;;;10.75;9.75;;;;;;;10.80;85.17;102219.06;1027985;28;20062;-80
2021/06/08 02:38:08;;;;;;;8.82;8.00;;;;;;;10.81;85.19;102220.81;1027909;28;20467;-81
2021/06/08 02:38:41;;;;;;;9.27;8.48;;;;;;;10.78;85.54;102218.16;1023754;29;20051;-81
2021/06/08 02:39:15;;;;;;;9.82;8.82;;;;;;;10.75;85.65;102216.31;1019715;29;20063;-81
2021/06/08 02:39:48;;;;;;;9.52;8.63;;;;;;;10.72;85.57;102217.91;1020772;29;20050;-81